Time,TemperatureF,DewpointF,PressureIn,WindDirection,WindDirectionDegrees,WindSpeedMPH,WindSpeedGustMPH,Humidity,HourlyPrecipIn,Conditions,Clouds,dailyrainin,SoftwareType,DateUTC
2013-10-18 00:01:00,44.5,39.7,29.79,WNW,282,0.0,0.0,83,0.00,,FEW075,0.00,VWS V14.01,2013-10-18 05:01:00,
2013-10-18 00:06:00,44.6,39.8,29.79,WNW,282,0.0,0.0,83,0.00,,FEW075,0.00,VWS V14.01,2013-10-18 05:06:00,
2013-10-18 00:11:00,44.3,39.5,29.79,WNW,282,0.0,0.0,83,0.00,,FEW075,0.00,VWS V14.01,2013-10-18 05:11:00,
2013-10-18 00:16:00,44.2,39.4,29.78,WNW,282,0.0,0.0,83,0.00,,FEW075,0.00,VWS V14.01,2013-10-18 05:16:00,
2013-10-18 00:21:00,43.6,39.1,29.78,WNW,282,0.0,0.0,84,0.00,,CLR,0.00,VWS V14.01,2013-10-18 05:21:00,
2013-10-18 00:26:00,43.1,38.9,29.78,WNW,282,0.0,0.0,85,0.00,,CLR,0.00,VWS V14.01,2013-10-18 05:26:00,
2013-10-18 00:31:00,42.6,38.7,29.78,WNW,282,0.0,0.0,86,0.00,,CLR,0.00,VWS V14.01,2013-10-18 05:31:00,
2013-10-18 00:36:00,42.1,38.5,29.78,WNW,282,0.0,0.0,87,0.00,,CLR,0.00,VWS V14.01,2013-10-18 05:36:00,
2013-10-18 00:40:00,42.1,38.8,29.78,WNW,282,0.0,0.0,88,0.00,,CLR,0.00,VWS V14.01,2013-10-18 05:40:00,
2013-10-18 00:45:00,41.9,38.6,29.78,WNW,282,0.0,0.0,88,0.00,,CLR,0.00,VWS V14.01,2013-10-18 05:45:00,
2013-10-18 00:50:00,41.8,38.5,29.78,WNW,282,0.0,0.0,88,0.00,,CLR,0.00,VWS V14.01,2013-10-18 05:50:00,
2013-10-18 00:55:00,42.4,39.4,29.78,WNW,282,0.0,0.0,89,0.00,,CLR,0.00,VWS V14.01,2013-10-18 05:55:00,
2013-10-18 01:00:00,43.0,39.4,29.78,WNW,282,0.0,0.0,87,0.00,,CLR,0.00,VWS V14.01,2013-10-18 06:00:00,
2013-10-18 01:05:00,43.3,39.4,29.78,WNW,282,0.0,0.0,86,0.00,,CLR,0.00,VWS V14.01,2013-10-18 06:05:00,
2013-10-18 01:10:00,42.9,39.0,29.78,WNW,282,0.0,0.0,86,0.00,,CLR,0.00,VWS V14.01,2013-10-18 06:10:00,
2013-10-18 01:15:00,42.8,38.9,29.78,WNW,282,0.0,0.0,86,0.00,,CLR,0.00,VWS V14.01,2013-10-18 06:15:00,
2013-10-18 01:20:00,42.9,39.0,29.78,WNW,282,0.0,0.0,86,0.00,,CLR,0.00,VWS V14.01,2013-10-18 06:20:00,
2013-10-18 01:25:00,42.5,38.3,29.78,WNW,282,0.0,0.0,85,0.00,,CLR,0.00,VWS V14.01,2013-10-18 06:25:00,
2013-10-18 01:30:00,41.9,38.3,29.78,WNW,282,0.0,0.0,87,0.00,,CLR,0.00,VWS V14.01,2013-10-18 06:30:00,
2013-10-18 01:35:00,41.5,37.9,29.78,WNW,282,0.0,0.0,87,0.00,,CLR,0.00,VWS V14.01,2013-10-18 06:35:00,
2013-10-18 01:40:00,41.7,38.4,29.78,WNW,282,0.0,0.0,88,0.00,,CLR,0.00,VWS V14.01,2013-10-18 06:40:00,
2013-10-18 01:45:00,41.8,38.2,29.78,WNW,282,0.0,0.0,87,0.00,,CLR,0.00,VWS V14.01,2013-10-18 06:45:00,
2013-10-18 01:50:00,41.1,37.8,29.78,WNW,282,0.0,0.0,88,0.00,,CLR,0.00,VWS V14.01,2013-10-18 06:50:00,
2013-10-18 01:55:00,41.4,38.4,29.78,WNW,282,0.0,0.0,89,0.00,,CLR,0.00,VWS V14.01,2013-10-18 06:55:00,
2013-10-18 02:00:00,41.6,38.3,29.78,WNW,282,0.0,0.0,88,0.00,,CLR,0.00,VWS V14.01,2013-10-18 07:00:00,
2013-10-18 02:05:00,41.4,38.1,29.78,WNW,282,0.0,0.0,88,0.00,,CLR,0.00,VWS V14.01,2013-10-18 07:05:00,
2013-10-18 02:10:00,41.1,37.8,29.78,WNW,282,1.0,2.0,88,0.00,,CLR,0.00,VWS V14.01,2013-10-18 07:10:00,
2013-10-18 02:15:00,40.6,37.6,29.78,WNW,282,0.0,0.0,89,0.00,,CLR,0.00,VWS V14.01,2013-10-18 07:15:00,
2013-10-18 02:20:00,41.1,38.1,29.78,WNW,282,0.0,0.0,89,0.00,,CLR,0.00,VWS V14.01,2013-10-18 07:20:00,
2013-10-18 02:25:00,41.7,38.1,29.78,West,267,3.0,3.0,87,0.00,,CLR,0.00,VWS V14.01,2013-10-18 07:25:00,
2013-10-18 02:30:00,41.9,38.0,29.78,West,267,2.0,3.0,86,0.00,,CLR,0.00,VWS V14.01,2013-10-18 07:30:00,
2013-10-18 02:35:00,41.9,38.0,29.78,West,267,2.0,3.0,86,0.00,,CLR,0.00,VWS V14.01,2013-10-18 07:35:00,
2013-10-18 02:40:00,41.9,38.0,29.78,West,267,1.0,1.0,86,0.00,,CLR,0.00,VWS V14.01,2013-10-18 07:40:00,
2013-10-18 02:45:00,42.0,38.1,29.78,West,267,2.0,3.0,86,0.00,,CLR,0.00,VWS V14.01,2013-10-18 07:45:00,
2013-10-18 02:51:00,41.7,37.8,29.78,West,267,2.0,2.0,86,0.00,,CLR,0.00,VWS V14.01,2013-10-18 07:51:00,
2013-10-18 02:56:00,41.7,37.8,29.78,West,267,0.0,0.0,86,0.00,,CLR,0.00,VWS V14.01,2013-10-18 07:56:00,
2013-10-18 03:01:00,41.8,37.9,29.78,West,267,2.0,2.0,86,0.00,,CLR,0.00,VWS V14.01,2013-10-18 08:01:00,
2013-10-18 03:06:00,41.8,37.9,29.78,West,267,1.0,2.0,86,0.00,,CLR,0.00,VWS V14.01,2013-10-18 08:06:00,
2013-10-18 03:11:00,42.0,38.1,29.78,SW,232,3.0,5.0,86,0.00,,CLR,0.00,VWS V14.01,2013-10-18 08:11:00,
2013-10-18 03:16:00,42.2,38.0,29.78,WSW,247,1.0,2.0,85,0.00,,CLR,0.00,VWS V14.01,2013-10-18 08:16:00,
2013-10-18 03:21:00,42.1,38.2,29.78,WSW,246,2.0,3.0,86,0.00,,CLR,0.00,VWS V14.01,2013-10-18 08:21:00,
2013-10-18 03:26:00,42.1,38.2,29.78,WSW,244,3.0,4.0,86,0.00,,CLR,0.00,VWS V14.01,2013-10-18 08:26:00,
2013-10-18 03:31:00,42.1,38.2,29.78,WSW,250,3.0,3.0,86,0.00,,CLR,0.00,VWS V14.01,2013-10-18 08:31:00,
2013-10-18 03:36:00,41.9,38.0,29.78,WSW,244,3.0,3.0,86,0.00,,CLR,0.00,VWS V14.01,2013-10-18 08:36:00,
2013-10-18 03:41:00,41.8,37.9,29.78,SW,219,3.0,3.0,86,0.00,,CLR,0.00,VWS V14.01,2013-10-18 08:41:00,
2013-10-18 03:46:00,41.5,37.9,29.79,West,265,3.0,5.0,87,0.00,,CLR,0.00,VWS V14.01,2013-10-18 08:46:00,
2013-10-18 03:51:00,41.5,37.9,29.79,WSW,255,2.0,3.0,87,0.00,,CLR,0.00,VWS V14.01,2013-10-18 08:51:00,
2013-10-18 03:56:00,41.3,37.7,29.79,WSW,240,0.0,2.0,87,0.00,,CLR,0.00,VWS V14.01,2013-10-18 08:56:00,
2013-10-18 04:01:00,41.1,37.8,29.79,SW,229,5.0,5.0,88,0.00,,CLR,0.00,VWS V14.01,2013-10-18 09:01:00,
2013-10-18 04:06:00,41.1,37.8,29.79,WSW,254,2.0,2.0,88,0.00,,CLR,0.00,VWS V14.01,2013-10-18 09:06:00,
2013-10-18 04:11:00,41.1,37.8,29.79,West,259,4.0,4.0,88,0.00,,CLR,0.00,VWS V14.01,2013-10-18 09:11:00,
2013-10-18 04:16:00,41.0,37.7,29.79,West,261,2.0,2.0,88,0.00,,CLR,0.00,VWS V14.01,2013-10-18 09:16:00,
2013-10-18 04:21:00,40.8,37.5,29.80,West,261,2.0,2.0,88,0.00,,CLR,0.00,VWS V14.01,2013-10-18 09:21:00,
2013-10-18 04:25:00,40.6,37.6,29.80,West,261,0.0,2.0,89,0.00,,CLR,0.00,VWS V14.01,2013-10-18 09:25:00,
2013-10-18 04:30:00,40.3,37.6,29.80,West,261,0.0,4.0,90,0.00,,CLR,0.00,VWS V14.01,2013-10-18 09:30:00,
2013-10-18 04:35:00,40.4,37.7,29.80,West,261,1.0,2.0,90,0.00,,CLR,0.00,VWS V14.01,2013-10-18 09:35:00,
2013-10-18 04:40:00,40.4,37.7,29.80,West,261,0.0,0.0,90,0.00,,CLR,0.00,VWS V14.01,2013-10-18 09:40:00,
2013-10-18 04:45:00,40.3,37.9,29.80,West,261,0.0,1.0,91,0.00,,CLR,0.00,VWS V14.01,2013-10-18 09:45:00,
2013-10-18 04:50:00,40.3,37.9,29.80,West,261,1.0,1.0,91,0.00,,CLR,0.00,VWS V14.01,2013-10-18 09:50:00,
2013-10-18 04:55:00,40.2,37.8,29.80,West,261,3.0,4.0,91,0.00,,CLR,0.00,VWS V14.01,2013-10-18 09:55:00,
2013-10-18 05:00:00,40.4,38.3,29.80,West,261,1.0,4.0,92,0.00,,CLR,0.00,VWS V14.01,2013-10-18 10:00:00,
2013-10-18 05:05:00,40.3,38.2,29.81,West,265,1.0,2.0,92,0.00,,CLR,0.00,VWS V14.01,2013-10-18 10:05:00,
2013-10-18 05:10:00,40.4,38.3,29.81,WSW,244,3.0,3.0,92,0.00,,CLR,0.00,VWS V14.01,2013-10-18 10:10:00,
2013-10-18 05:16:00,40.6,38.7,29.81,WSW,252,4.0,5.0,93,0.00,,CLR,0.00,VWS V14.01,2013-10-18 10:16:00,
2013-10-18 05:21:00,40.7,38.6,29.81,WSW,252,0.0,1.0,92,0.00,,FEW008,0.00,VWS V14.01,2013-10-18 10:21:00,
2013-10-18 05:26:00,40.9,39.0,29.81,West,260,3.0,4.0,93,0.00,,FEW008,0.00,VWS V14.01,2013-10-18 10:26:00,
2013-10-18 05:31:00,41.2,39.3,29.81,WSW,252,2.0,7.0,93,0.00,,FEW008,0.00,VWS V14.01,2013-10-18 10:31:00,
2013-10-18 05:36:00,41.5,39.9,29.81,West,260,2.0,4.0,94,0.00,,FEW008,0.00,VWS V14.01,2013-10-18 10:36:00,
2013-10-18 05:41:00,42.0,40.4,29.82,West,270,2.0,5.0,94,0.00,,BKN006,0.00,VWS V14.01,2013-10-18 10:41:00,
2013-10-18 05:46:00,42.4,40.8,29.82,SW,236,0.0,3.0,94,0.00,,BKN006,0.00,VWS V14.01,2013-10-18 10:46:00,
2013-10-18 05:51:00,42.4,40.8,29.82,WSW,242,2.0,4.0,94,0.00,,BKN006,0.00,VWS V14.01,2013-10-18 10:51:00,
2013-10-18 05:56:00,42.6,41.3,29.82,NW,314,0.0,0.0,95,0.00,,BKN006,0.00,VWS V14.01,2013-10-18 10:56:00,
2013-10-18 06:01:00,42.9,41.6,29.82,WSW,256,0.0,4.0,95,0.00,,OVC006,0.00,VWS V14.01,2013-10-18 11:01:00,
2013-10-18 06:06:00,43.1,41.8,29.82,WSW,248,2.0,2.0,95,0.00,,OVC006,0.00,VWS V14.01,2013-10-18 11:06:00,
2013-10-18 06:10:00,43.3,42.0,29.82,West,268,1.0,2.0,95,0.00,,OVC006,0.00,VWS V14.01,2013-10-18 11:10:00,
2013-10-18 06:15:00,43.4,42.3,29.82,West,260,2.0,3.0,96,0.00,,OVC006,0.00,VWS V14.01,2013-10-18 11:15:00,
2013-10-18 06:25:00,43.8,42.7,29.82,WSW,248,0.0,0.0,96,0.00,,OVC006,0.00,VWS V14.01,2013-10-18 11:25:00,
2013-10-18 06:30:00,44.0,42.9,29.83,SW,233,0.0,1.0,96,0.00,,OVC006,0.00,VWS V14.01,2013-10-18 11:30:00,
2013-10-18 06:35:00,44.1,43.0,29.83,SW,233,0.0,2.0,96,0.00,,OVC006,0.00,VWS V14.01,2013-10-18 11:35:00,
2013-10-18 06:40:00,44.2,43.1,29.83,SW,233,0.0,0.0,96,0.00,,OVC008,0.00,VWS V14.01,2013-10-18 11:40:00,
2013-10-18 06:45:00,44.3,43.2,29.83,SW,233,2.0,3.0,96,0.00,,OVC008,0.00,VWS V14.01,2013-10-18 11:45:00,
2013-10-18 06:50:00,44.4,43.1,29.83,WSW,257,1.0,2.0,95,0.00,,OVC008,0.00,VWS V14.01,2013-10-18 11:50:00,
2013-10-18 06:55:00,44.5,43.2,29.84,WSW,254,1.0,1.0,95,0.00,,OVC008,0.00,VWS V14.01,2013-10-18 11:55:00,
2013-10-18 07:00:00,44.5,43.2,29.84,WSW,238,5.0,5.0,95,0.00,,OVC008,0.00,VWS V14.01,2013-10-18 12:00:00,
2013-10-18 07:05:00,44.1,42.8,29.84,WSW,250,0.0,4.0,95,0.00,,OVC008,0.00,VWS V14.01,2013-10-18 12:05:00,
2013-10-18 07:10:00,43.9,42.3,29.84,SW,229,5.0,5.0,94,0.00,,OVC008,0.00,VWS V14.01,2013-10-18 12:10:00,
2013-10-18 07:15:00,43.8,42.2,29.85,West,265,1.0,2.0,94,0.00,,OVC008,0.00,VWS V14.01,2013-10-18 12:15:00,
2013-10-18 07:20:00,43.7,42.1,29.85,West,273,3.0,7.0,94,0.00,,OVC008,0.00,VWS V14.01,2013-10-18 12:20:00,
2013-10-18 07:25:00,43.7,42.1,29.85,WSW,254,4.0,7.0,94,0.00,,OVC008,0.00,VWS V14.01,2013-10-18 12:25:00,
2013-10-18 07:30:00,43.6,41.7,29.86,WNW,290,3.0,7.0,93,0.00,,OVC008,0.00,VWS V14.01,2013-10-18 12:30:00,
2013-10-18 07:35:00,43.5,41.6,29.86,WSW,247,2.0,8.0,93,0.00,,OVC008,0.00,VWS V14.01,2013-10-18 12:35:00,
2013-10-18 07:40:00,43.6,41.7,29.86,WSW,241,3.0,3.0,93,0.00,,OVC008,0.00,VWS V14.01,2013-10-18 12:40:00,
2013-10-18 07:45:00,43.6,41.4,29.86,WSW,246,5.0,5.0,92,0.00,,OVC008,0.00,VWS V14.01,2013-10-18 12:45:00,
2013-10-18 07:50:00,43.7,41.5,29.86,WSW,257,0.0,0.0,92,0.00,,OVC008,0.00,VWS V14.01,2013-10-18 12:50:00,
2013-10-18 07:55:00,43.8,41.6,29.86,SW,234,1.0,1.0,92,0.00,,OVC008,0.00,VWS V14.01,2013-10-18 12:55:00,
2013-10-18 08:00:00,43.8,41.6,29.86,WSW,254,2.0,5.0,92,0.00,,OVC015,0.00,VWS V14.01,2013-10-18 13:00:00,
2013-10-18 08:05:00,43.9,41.7,29.87,SW,233,0.0,1.0,92,0.00,,OVC015,0.00,VWS V14.01,2013-10-18 13:05:00,
2013-10-18 08:10:00,44.0,41.8,29.87,SW,227,3.0,5.0,92,0.00,,OVC015,0.00,VWS V14.01,2013-10-18 13:10:00,
2013-10-18 08:15:00,44.1,41.7,29.87,WSW,252,5.0,7.0,91,0.00,,OVC015,0.00,VWS V14.01,2013-10-18 13:15:00,
2013-10-18 08:20:00,44.2,41.7,29.88,WSW,253,1.0,4.0,91,0.00,,OVC014,0.00,VWS V14.01,2013-10-18 13:20:00,
2013-10-18 08:25:00,44.3,41.6,29.88,WSW,253,4.0,4.0,90,0.00,,OVC014,0.00,VWS V14.01,2013-10-18 13:25:00,
2013-10-18 08:30:00,44.3,41.6,29.88,WSW,253,1.0,1.0,90,0.00,,OVC014,0.00,VWS V14.01,2013-10-18 13:30:00,
2013-10-18 08:35:00,44.4,41.7,29.88,SW,224,5.0,5.0,90,0.00,,OVC014,0.00,VWS V14.01,2013-10-18 13:35:00,
2013-10-18 08:40:00,44.5,41.5,29.89,WSW,240,4.0,5.0,89,0.00,,OVC017,0.00,VWS V14.01,2013-10-18 13:40:00,
2013-10-18 08:45:00,44.7,41.7,29.89,WSW,256,6.0,6.0,89,0.00,,OVC017,0.00,VWS V14.01,2013-10-18 13:45:00,
2013-10-18 08:50:00,44.9,41.9,29.89,WSW,247,0.0,0.0,89,0.00,,OVC017,0.00,VWS V14.01,2013-10-18 13:50:00,
2013-10-18 08:55:00,45.0,42.0,29.89,West,261,1.0,2.0,89,0.00,,OVC017,0.00,VWS V14.01,2013-10-18 13:55:00,
2013-10-18 09:00:00,45.1,42.1,29.89,WSW,254,5.0,6.0,89,0.00,,OVC017,0.00,VWS V14.01,2013-10-18 14:00:00,
2013-10-18 09:05:00,45.0,41.7,29.89,SW,236,6.0,6.0,88,0.00,,OVC021,0.00,VWS V14.01,2013-10-18 14:05:00,
2013-10-18 09:10:00,45.1,41.8,29.89,West,270,7.0,7.0,88,0.00,,OVC021,0.00,VWS V14.01,2013-10-18 14:10:00,
2013-10-18 09:15:00,45.1,41.8,29.90,West,277,0.0,1.0,88,0.00,,OVC021,0.00,VWS V14.01,2013-10-18 14:15:00,
2013-10-18 09:20:00,45.1,41.5,29.90,NW,306,5.0,9.0,87,0.00,,OVC021,0.00,VWS V14.01,2013-10-18 14:20:00,
2013-10-18 09:25:00,45.1,41.5,29.90,WSW,252,5.0,5.0,87,0.00,,OVC021,0.00,VWS V14.01,2013-10-18 14:25:00,
2013-10-18 09:30:00,45.2,41.6,29.90,SW,222,4.0,10.0,87,0.00,,OVC021,0.00,VWS V14.01,2013-10-18 14:30:00,
2013-10-18 09:35:00,45.2,41.6,29.90,WNW,285,5.0,9.0,87,0.00,,OVC021,0.00,VWS V14.01,2013-10-18 14:35:00,
2013-10-18 09:40:00,45.2,41.0,29.90,WSW,254,4.0,10.0,85,0.00,,OVC021,0.00,VWS V14.01,2013-10-18 14:40:00,
2013-10-18 09:45:00,45.2,40.7,29.90,West,265,4.0,9.0,84,0.00,,,0.00,VWS V14.01,2013-10-18 14:45:00,
2013-10-18 09:50:00,45.2,41.0,29.90,West,279,5.0,9.0,85,0.00,,,0.00,VWS V14.01,2013-10-18 14:50:00,
2013-10-18 09:55:00,45.3,40.8,29.90,SW,236,6.0,11.0,84,0.00,,,0.00,VWS V14.01,2013-10-18 14:55:00,
2013-10-18 10:00:00,45.2,40.7,29.90,West,269,5.0,11.0,84,0.00,,,0.00,VWS V14.01,2013-10-18 15:00:00,
2013-10-18 10:05:00,45.3,40.8,29.90,SW,228,5.0,8.0,84,0.00,,OVC017,0.00,VWS V14.01,2013-10-18 15:05:00,
2013-10-18 10:10:00,45.5,40.7,29.90,West,275,6.0,11.0,83,0.00,,OVC017,0.00,VWS V14.01,2013-10-18 15:10:00,
2013-10-18 10:15:00,45.6,41.0,29.90,SW,226,1.0,10.0,84,0.00,,OVC017,0.00,VWS V14.01,2013-10-18 15:15:00,
2013-10-18 10:20:00,45.8,40.6,29.90,West,273,4.0,9.0,82,0.00,,OVC017,0.00,VWS V14.01,2013-10-18 15:20:00,
2013-10-18 10:25:00,45.6,40.4,29.91,WNW,282,1.0,9.0,82,0.00,,OVC017,0.00,VWS V14.01,2013-10-18 15:25:00,
2013-10-18 10:30:00,45.9,41.0,29.91,WNW,284,3.0,6.0,83,0.00,,OVC017,0.00,VWS V14.01,2013-10-18 15:30:00,
2013-10-18 10:35:00,45.8,40.6,29.91,West,273,4.0,14.0,82,0.00,,OVC017,0.00,VWS V14.01,2013-10-18 15:35:00,
2013-10-18 10:40:00,45.7,40.5,29.91,WSW,255,5.0,7.0,82,0.00,,OVC017,0.00,VWS V14.01,2013-10-18 15:40:00,
2013-10-18 10:45:00,45.8,40.6,29.91,WSW,243,5.0,13.0,82,0.00,,OVC019,0.00,VWS V14.01,2013-10-18 15:45:00,
2013-10-18 10:50:00,45.7,40.2,29.91,West,273,3.0,15.0,81,0.00,,OVC019,0.00,VWS V14.01,2013-10-18 15:50:00,
2013-10-18 10:55:00,45.7,40.2,29.91,WSW,257,3.0,9.0,81,0.00,,OVC019,0.00,VWS V14.01,2013-10-18 15:55:00,
2013-10-18 11:00:00,46.0,40.8,29.91,West,269,4.0,7.0,82,0.00,,OVC019,0.00,VWS V14.01,2013-10-18 16:00:00,
2013-10-18 11:04:00,46.3,40.8,29.91,West,275,3.0,8.0,81,0.00,,OVC021,0.00,VWS V14.01,2013-10-18 16:04:00,
2013-10-18 11:09:00,46.3,40.5,29.92,West,271,3.0,9.0,80,0.00,,OVC021,0.00,VWS V14.01,2013-10-18 16:09:00,
2013-10-18 11:14:00,46.5,40.3,29.92,West,260,6.0,15.0,79,0.00,,OVC021,0.00,VWS V14.01,2013-10-18 16:14:00,
2013-10-18 11:19:00,46.7,40.9,29.92,WSW,250,3.0,7.0,80,0.00,,OVC021,0.00,VWS V14.01,2013-10-18 16:19:00,
2013-10-18 11:24:00,46.9,40.4,29.92,West,273,1.0,9.0,78,0.00,,OVC023,0.00,VWS V14.01,2013-10-18 16:24:00,
2013-10-18 11:29:00,46.9,40.4,29.91,NW,314,4.0,8.0,78,0.00,,OVC023,0.00,VWS V14.01,2013-10-18 16:29:00,
2013-10-18 11:34:00,47.3,40.8,29.91,SW,221,2.0,11.0,78,0.00,,OVC023,0.00,VWS V14.01,2013-10-18 16:34:00,
2013-10-18 11:39:00,47.4,40.6,29.91,West,273,3.0,7.0,77,0.00,,OVC023,0.00,VWS V14.01,2013-10-18 16:39:00,
2013-10-18 11:44:00,47.6,40.8,29.91,West,276,7.0,10.0,77,0.00,,OVC023,0.00,VWS V14.01,2013-10-18 16:44:00,
2013-10-18 11:49:00,47.9,40.7,29.91,WNW,288,11.0,13.0,76,0.00,,OVC023,0.00,VWS V14.01,2013-10-18 16:49:00,
2013-10-18 11:54:00,48.0,40.5,29.91,WSW,254,11.0,11.0,75,0.00,,OVC023,0.00,VWS V14.01,2013-10-18 16:54:00,
2013-10-18 11:59:00,48.2,40.7,29.91,NW,314,2.0,8.0,75,0.00,,OVC023,0.00,VWS V14.01,2013-10-18 16:59:00,
2013-10-18 12:04:00,48.2,40.3,29.91,West,266,3.0,9.0,74,0.00,,OVC025,0.00,VWS V14.01,2013-10-18 17:04:00,
2013-10-18 12:09:00,48.5,40.6,29.91,SW,215,5.0,8.0,74,0.00,,OVC025,0.00,VWS V14.01,2013-10-18 17:09:00,
2013-10-18 12:14:00,48.6,40.7,29.91,West,263,3.0,8.0,74,0.00,,OVC025,0.00,VWS V14.01,2013-10-18 17:14:00,
2013-10-18 12:19:00,48.7,40.8,29.91,WSW,258,2.0,11.0,74,0.00,,OVC025,0.00,VWS V14.01,2013-10-18 17:19:00,
2013-10-18 12:24:00,48.3,40.1,29.90,West,269,3.0,9.0,73,0.00,,OVC027,0.00,VWS V14.01,2013-10-18 17:24:00,
2013-10-18 12:29:00,48.5,40.6,29.90,SW,234,0.0,6.0,74,0.00,,OVC027,0.00,VWS V14.01,2013-10-18 17:29:00,
2013-10-18 12:34:00,48.5,40.2,29.90,West,272,6.0,11.0,73,0.00,,OVC027,0.00,VWS V14.01,2013-10-18 17:34:00,
2013-10-18 12:35:00,48.5,40.2,29.90,WSW,238,1.0,11.0,73,0.00,,OVC027,0.00,VWS V14.01,2013-10-18 17:35:00,
2013-10-18 12:40:00,48.8,40.9,29.90,North,350,4.0,10.0,74,0.00,,OVC027,0.00,VWS V14.01,2013-10-18 17:40:00,
2013-10-18 12:45:00,48.7,40.5,29.90,West,274,2.0,11.0,73,0.00,,OVC034,0.00,VWS V14.01,2013-10-18 17:45:00,
2013-10-18 12:50:00,48.6,40.3,29.90,West,278,4.0,8.0,73,0.00,,OVC034,0.00,VWS V14.01,2013-10-18 17:50:00,
2013-10-18 12:55:00,48.5,41.0,29.90,West,269,1.0,7.0,75,0.00,,OVC034,0.00,VWS V14.01,2013-10-18 17:55:00,
2013-10-18 13:00:00,48.4,40.5,29.90,West,281,1.0,7.0,74,0.00,,OVC034,0.00,VWS V14.01,2013-10-18 18:00:00,
2013-10-18 13:05:00,48.1,40.6,29.90,West,268,3.0,11.0,75,0.00,,OVC036,0.00,VWS V14.01,2013-10-18 18:05:00,
2013-10-18 13:10:00,48.1,40.2,29.90,WNW,285,7.0,8.0,74,0.00,,OVC036,0.00,VWS V14.01,2013-10-18 18:10:00,
2013-10-18 13:15:00,47.9,40.4,29.90,WSW,250,2.0,11.0,75,0.00,,OVC036,0.00,VWS V14.01,2013-10-18 18:15:00,
2013-10-18 13:20:00,47.9,40.4,29.90,NNW,329,3.0,8.0,75,0.00,,OVC036,0.00,VWS V14.01,2013-10-18 18:20:00,
2013-10-18 13:25:00,48.0,40.1,29.90,NW,317,5.0,7.0,74,0.00,,OVC037,0.00,VWS V14.01,2013-10-18 18:25:00,
2013-10-18 13:30:00,48.4,40.5,29.90,WNW,302,3.0,10.0,74,0.00,,OVC037,0.00,VWS V14.01,2013-10-18 18:30:00,
2013-10-18 13:35:00,49.1,40.5,29.90,NW,313,4.0,11.0,72,0.00,,OVC037,0.00,VWS V14.01,2013-10-18 18:35:00,
2013-10-18 13:40:00,48.8,40.2,29.90,West,268,2.0,10.0,72,0.00,,OVC037,0.00,VWS V14.01,2013-10-18 18:40:00,
2013-10-18 13:45:00,48.8,40.2,29.90,WSW,244,0.0,9.0,72,0.00,,OVC031,0.00,VWS V14.01,2013-10-18 18:45:00,
2013-10-18 13:50:00,48.9,40.3,29.90,West,269,3.0,12.0,72,0.00,,OVC031,0.00,VWS V14.01,2013-10-18 18:50:00,
2013-10-18 13:55:00,48.8,40.5,29.89,West,279,4.0,9.0,73,0.00,,OVC031,0.00,VWS V14.01,2013-10-18 18:55:00,
2013-10-18 14:00:00,48.7,40.1,29.90,NW,304,4.0,8.0,72,0.00,,OVC031,0.00,VWS V14.01,2013-10-18 19:00:00,
2013-10-18 14:04:00,48.7,39.7,29.89,NW,316,6.0,13.0,71,0.00,,OVC031,0.00,VWS V14.01,2013-10-18 19:04:00,
2013-10-18 14:09:00,48.8,40.2,29.89,WSW,239,2.0,11.0,72,0.00,,OVC031,0.00,VWS V14.01,2013-10-18 19:09:00,
2013-10-18 14:14:00,48.7,40.1,29.89,NW,306,1.0,8.0,72,0.00,,OVC031,0.00,VWS V14.01,2013-10-18 19:14:00,
2013-10-18 14:19:00,48.6,40.0,29.89,NNW,336,3.0,8.0,72,0.00,,OVC031,0.00,VWS V14.01,2013-10-18 19:19:00,
2013-10-18 14:24:00,48.5,40.2,29.89,WSW,258,4.0,8.0,73,0.00,,OVC031,0.00,VWS V14.01,2013-10-18 19:24:00,
2013-10-18 14:29:00,48.3,40.1,29.89,WSW,256,5.0,9.0,73,0.00,,OVC031,0.00,VWS V14.01,2013-10-18 19:29:00,
2013-10-18 14:34:00,48.3,40.1,29.89,West,269,3.0,5.0,73,0.00,,OVC031,0.00,VWS V14.01,2013-10-18 19:34:00,
2013-10-18 14:39:00,48.4,40.2,29.89,West,271,0.0,4.0,73,0.00,,OVC031,0.00,VWS V14.01,2013-10-18 19:39:00,
2013-10-18 14:44:00,48.5,39.9,29.89,WNW,300,1.0,9.0,72,0.00,,OVC031,0.00,VWS V14.01,2013-10-18 19:44:00,
2013-10-18 14:49:00,48.4,39.8,29.90,WSW,248,3.0,6.0,72,0.00,,OVC031,0.00,VWS V14.01,2013-10-18 19:49:00,
2013-10-18 14:54:00,48.4,40.2,29.89,SW,236,3.0,4.0,73,0.00,,OVC031,0.00,VWS V14.01,2013-10-18 19:54:00,
2013-10-18 14:59:00,48.4,39.8,29.89,WSW,248,0.0,7.0,72,0.00,,OVC031,0.00,VWS V14.01,2013-10-18 19:59:00,
2013-10-18 15:04:00,48.3,40.1,29.90,WNW,285,5.0,6.0,73,0.00,,OVC037,0.00,VWS V14.01,2013-10-18 20:04:00,
2013-10-18 15:09:00,48.3,39.7,29.90,NW,305,1.0,8.0,72,0.00,,OVC037,0.00,VWS V14.01,2013-10-18 20:09:00,
2013-10-18 15:14:00,48.2,40.0,29.90,West,280,1.0,6.0,73,0.00,,OVC037,0.00,VWS V14.01,2013-10-18 20:14:00,
2013-10-18 15:19:00,48.3,40.1,29.89,NNW,348,0.0,6.0,73,0.00,,OVC037,0.00,VWS V14.01,2013-10-18 20:19:00,
2013-10-18 15:24:00,48.4,40.2,29.90,WSW,257,4.0,5.0,73,0.00,,OVC035,0.00,VWS V14.01,2013-10-18 20:24:00,
2013-10-18 15:29:00,48.6,40.0,29.90,NW,321,5.0,5.0,72,0.00,,OVC035,0.00,VWS V14.01,2013-10-18 20:29:00,
2013-10-18 15:34:00,48.8,40.5,29.90,SW,236,5.0,6.0,73,0.00,,OVC035,0.00,VWS V14.01,2013-10-18 20:34:00,
2013-10-18 15:39:00,48.9,39.9,29.90,NW,315,3.0,7.0,71,0.00,,OVC035,0.00,VWS V14.01,2013-10-18 20:39:00,
2013-10-18 15:44:00,49.0,40.0,29.90,NW,313,0.0,8.0,71,0.00,,OVC035,0.00,VWS V14.01,2013-10-18 20:44:00,
2013-10-18 15:49:00,49.1,40.1,29.90,NNW,333,1.0,5.0,71,0.00,,OVC035,0.00,VWS V14.01,2013-10-18 20:49:00,
2013-10-18 15:54:00,48.9,39.9,29.90,West,261,0.0,5.0,71,0.00,,OVC035,0.00,VWS V14.01,2013-10-18 20:54:00,
2013-10-18 15:59:00,48.8,39.8,29.90,WSW,251,0.0,6.0,71,0.00,,OVC035,0.00,VWS V14.01,2013-10-18 20:59:00,
2013-10-18 16:04:00,48.8,39.8,29.90,West,259,0.0,6.0,71,0.00,,OVC044,0.00,VWS V14.01,2013-10-18 21:04:00,
2013-10-18 16:09:00,48.9,39.9,29.90,NW,310,4.0,4.0,71,0.00,,OVC044,0.00,VWS V14.01,2013-10-18 21:09:00,
2013-10-18 16:14:00,49.1,40.1,29.90,WNW,286,1.0,4.0,71,0.00,,OVC044,0.00,VWS V14.01,2013-10-18 21:14:00,
2013-10-18 16:19:00,49.0,39.7,29.90,West,270,0.0,4.0,70,0.00,,OVC044,0.00,VWS V14.01,2013-10-18 21:19:00,
2013-10-18 16:24:00,48.9,39.6,29.90,WSW,253,2.0,4.0,70,0.00,,OVC043,0.00,VWS V14.01,2013-10-18 21:24:00,
2013-10-18 16:29:00,48.9,39.6,29.90,WSW,253,0.0,1.0,70,0.00,,OVC043,0.00,VWS V14.01,2013-10-18 21:29:00,
2013-10-18 16:34:00,48.9,39.9,29.89,WSW,253,0.0,3.0,71,0.00,,OVC043,0.00,VWS V14.01,2013-10-18 21:34:00,
2013-10-18 16:39:00,49.0,40.0,29.89,WSW,253,2.0,2.0,71,0.00,,OVC043,0.00,VWS V14.01,2013-10-18 21:39:00,
2013-10-18 16:44:00,49.0,40.0,29.90,WSW,253,0.0,1.0,71,0.00,,OVC046,0.00,VWS V14.01,2013-10-18 21:44:00,
2013-10-18 16:49:00,48.9,39.9,29.90,WSW,253,0.0,0.0,71,0.00,,OVC046,0.00,VWS V14.01,2013-10-18 21:49:00,
2013-10-18 16:54:00,49.0,40.0,29.90,WSW,253,0.0,4.0,71,0.00,,OVC046,0.00,VWS V14.01,2013-10-18 21:54:00,
2013-10-18 16:59:00,49.0,40.0,29.90,NW,309,0.0,3.0,71,0.00,,OVC046,0.00,VWS V14.01,2013-10-18 21:59:00,
2013-10-18 17:04:00,49.0,40.4,29.90,NW,309,0.0,0.0,72,0.00,,OVC049,0.00,VWS V14.01,2013-10-18 22:04:00,
2013-10-18 17:09:00,49.0,40.0,29.90,NW,309,0.0,0.0,71,0.00,,OVC049,0.00,VWS V14.01,2013-10-18 22:09:00,
2013-10-18 17:14:00,49.0,40.0,29.90,WNW,296,2.0,2.0,71,0.00,,OVC049,0.00,VWS V14.01,2013-10-18 22:14:00,
2013-10-18 17:19:00,49.1,39.8,29.90,West,270,1.0,4.0,70,0.00,,OVC049,0.00,VWS V14.01,2013-10-18 22:19:00,
2013-10-18 17:24:00,49.1,39.8,29.90,West,269,0.0,5.0,70,0.00,,OVC048,0.00,VWS V14.01,2013-10-18 22:24:00,
2013-10-18 17:29:00,49.1,39.8,29.90,West,270,0.0,0.0,70,0.00,,OVC048,0.00,VWS V14.01,2013-10-18 22:29:00,
2013-10-18 17:34:00,49.0,40.0,29.90,West,269,0.0,0.0,71,0.00,,OVC048,0.00,VWS V14.01,2013-10-18 22:34:00,
2013-10-18 17:39:00,49.0,40.0,29.90,West,270,0.0,1.0,71,0.00,,OVC048,0.00,VWS V14.01,2013-10-18 22:39:00,
2013-10-18 17:44:00,48.9,39.9,29.90,West,270,0.0,2.0,71,0.00,,BKN050,0.00,VWS V14.01,2013-10-18 22:44:00,
2013-10-18 17:49:00,48.9,39.9,29.90,West,269,0.0,1.0,71,0.00,,BKN050,0.00,VWS V14.01,2013-10-18 22:49:00,
2013-10-18 17:54:00,48.8,39.8,29.91,West,269,0.0,1.0,71,0.00,,BKN050,0.00,VWS V14.01,2013-10-18 22:54:00,
2013-10-18 17:59:00,48.7,39.4,29.91,West,270,0.0,2.0,70,0.00,,BKN050,0.00,VWS V14.01,2013-10-18 22:59:00,
2013-10-18 18:04:00,48.5,39.5,29.91,West,269,0.0,1.0,71,0.00,,BKN050,0.00,VWS V14.01,2013-10-18 23:04:00,
2013-10-18 18:09:00,48.4,39.8,29.91,West,269,0.0,3.0,72,0.00,,BKN050,0.00,VWS V14.01,2013-10-18 23:09:00,
2013-10-18 18:14:00,48.4,40.2,29.91,West,269,0.0,1.0,73,0.00,,BKN050,0.00,VWS V14.01,2013-10-18 23:14:00,
2013-10-18 18:19:00,48.3,40.1,29.91,West,270,0.0,0.0,73,0.00,,BKN050,0.00,VWS V14.01,2013-10-18 23:19:00,
2013-10-18 18:24:00,48.1,40.2,29.90,West,270,0.0,0.0,74,0.00,,OVC050,0.00,VWS V14.01,2013-10-18 23:24:00,
2013-10-18 18:29:00,48.0,40.1,29.91,West,270,0.0,1.0,74,0.00,,OVC050,0.00,VWS V14.01,2013-10-18 23:29:00,
2013-10-18 18:34:00,47.8,40.3,29.91,West,269,0.0,0.0,75,0.00,,OVC050,0.00,VWS V14.01,2013-10-18 23:34:00,
2013-10-18 18:39:00,47.9,40.4,29.91,West,269,0.0,1.0,75,0.00,,OVC050,0.00,VWS V14.01,2013-10-18 23:39:00,
2013-10-18 18:44:00,47.7,39.8,29.91,West,270,0.0,0.0,74,0.00,,BKN050,0.00,VWS V14.01,2013-10-18 23:44:00,
2013-10-18 18:49:00,47.5,40.0,29.91,West,270,0.0,1.0,75,0.00,,BKN050,0.00,VWS V14.01,2013-10-18 23:49:00,
2013-10-18 18:54:00,47.3,40.1,29.90,West,269,0.0,0.0,76,0.00,,BKN050,0.00,VWS V14.01,2013-10-18 23:54:00,
2013-10-18 18:59:00,47.2,40.0,29.91,West,270,0.0,0.0,76,0.00,,BKN050,0.00,VWS V14.01,2013-10-18 23:59:00,
2013-10-18 19:04:00,47.2,40.0,29.91,West,269,0.0,1.0,76,0.00,,FEW050,0.00,VWS V14.01,2013-10-19 00:04:00,
2013-10-18 19:09:00,47.3,40.1,29.91,West,269,0.0,2.0,76,0.00,,FEW050,0.00,VWS V14.01,2013-10-19 00:09:00,
2013-10-18 19:14:00,47.5,39.6,29.92,West,269,0.0,5.0,74,0.00,,FEW050,0.00,VWS V14.01,2013-10-19 00:14:00,
2013-10-18 19:18:00,47.5,39.6,29.92,West,269,0.0,2.0,74,0.00,,FEW050,0.00,VWS V14.01,2013-10-19 00:18:00,
2013-10-18 19:23:00,47.4,39.9,29.91,West,269,0.0,1.0,75,0.00,,CLR,0.00,VWS V14.01,2013-10-19 00:23:00,
2013-10-18 19:28:00,47.3,39.8,29.91,West,269,0.0,1.0,75,0.00,,CLR,0.00,VWS V14.01,2013-10-19 00:28:00,
2013-10-18 19:33:00,47.1,39.6,29.91,West,269,0.0,2.0,75,0.00,,CLR,0.00,VWS V14.01,2013-10-19 00:33:00,
2013-10-18 19:38:00,46.9,39.7,29.91,West,269,0.0,1.0,76,0.00,,CLR,0.00,VWS V14.01,2013-10-19 00:38:00,
2013-10-18 19:43:00,47.0,39.8,29.91,West,269,0.0,2.0,76,0.00,,FEW110,0.00,VWS V14.01,2013-10-19 00:43:00,
2013-10-18 19:48:00,46.9,39.7,29.91,West,269,0.0,2.0,76,0.00,,FEW110,0.00,VWS V14.01,2013-10-19 00:48:00,
2013-10-18 19:53:00,46.5,39.7,29.91,West,269,0.0,0.0,77,0.00,,FEW110,0.00,VWS V14.01,2013-10-19 00:53:00,
2013-10-18 19:58:00,46.3,39.8,29.91,West,269,0.0,0.0,78,0.00,,FEW110,0.00,VWS V14.01,2013-10-19 00:58:00,
2013-10-18 20:03:00,46.2,39.7,29.90,West,269,0.0,0.0,78,0.00,,CLR,0.00,VWS V14.01,2013-10-19 01:03:00,
2013-10-18 20:08:00,46.3,39.8,29.90,West,269,0.0,0.0,78,0.00,,CLR,0.00,VWS V14.01,2013-10-19 01:08:00,
2013-10-18 20:13:00,46.1,40.0,29.90,West,269,0.0,3.0,79,0.00,,CLR,0.00,VWS V14.01,2013-10-19 01:13:00,
2013-10-18 20:18:00,46.1,39.6,29.90,West,269,0.0,1.0,78,0.00,,CLR,0.00,VWS V14.01,2013-10-19 01:18:00,
2013-10-18 20:23:00,46.1,39.6,29.90,West,269,0.0,2.0,78,0.00,,CLR,0.00,VWS V14.01,2013-10-19 01:23:00,
2013-10-18 20:28:00,46.1,39.6,29.90,West,269,1.0,2.0,78,0.00,,CLR,0.00,VWS V14.01,2013-10-19 01:28:00,
2013-10-18 20:33:00,46.0,39.9,29.91,West,269,1.0,1.0,79,0.00,,CLR,0.00,VWS V14.01,2013-10-19 01:33:00,
2013-10-18 20:38:00,46.0,39.9,29.91,West,269,1.0,3.0,79,0.00,,CLR,0.00,VWS V14.01,2013-10-19 01:38:00,
2013-10-18 20:43:00,46.1,40.0,29.91,SW,224,0.0,4.0,79,0.00,,CLR,0.00,VWS V14.01,2013-10-19 01:43:00,
2013-10-18 20:48:00,46.0,39.9,29.91,SW,224,2.0,4.0,79,0.00,,CLR,0.00,VWS V14.01,2013-10-19 01:48:00,
2013-10-18 20:53:00,45.9,39.8,29.91,SW,224,2.0,5.0,79,0.00,,CLR,0.00,VWS V14.01,2013-10-19 01:53:00,
2013-10-18 20:58:00,45.9,40.1,29.91,SW,224,3.0,3.0,80,0.00,,CLR,0.00,VWS V14.01,2013-10-19 01:58:00,
2013-10-18 21:03:00,45.8,40.0,29.91,SW,224,3.0,4.0,80,0.00,,CLR,0.00,VWS V14.01,2013-10-19 02:03:00,
2013-10-18 21:08:00,45.7,40.2,29.91,SW,224,4.0,4.0,81,0.00,,CLR,0.00,VWS V14.01,2013-10-19 02:08:00,
2013-10-18 21:13:00,45.8,40.3,29.91,SW,233,5.0,5.0,81,0.00,,CLR,0.00,VWS V14.01,2013-10-19 02:13:00,
2013-10-18 21:18:00,46.0,40.2,29.91,SW,233,3.0,5.0,80,0.00,,CLR,0.00,VWS V14.01,2013-10-19 02:18:00,
2013-10-18 21:23:00,45.9,40.1,29.91,SW,233,3.0,4.0,80,0.00,,CLR,0.00,VWS V14.01,2013-10-19 02:23:00,
2013-10-18 21:28:00,45.9,40.4,29.91,SW,233,4.0,5.0,81,0.00,,CLR,0.00,VWS V14.01,2013-10-19 02:28:00,
2013-10-18 21:33:00,45.8,40.3,29.91,SW,233,3.0,5.0,81,0.00,,CLR,0.00,VWS V14.01,2013-10-19 02:33:00,
2013-10-18 21:38:00,45.6,40.4,29.91,SW,233,5.0,5.0,82,0.00,,CLR,0.00,VWS V14.01,2013-10-19 02:38:00,
2013-10-18 21:43:00,45.5,40.3,29.91,SW,233,3.0,3.0,82,0.00,,SCT055,0.00,VWS V14.01,2013-10-19 02:43:00,
2013-10-18 21:48:00,45.3,40.1,29.91,SW,233,1.0,4.0,82,0.00,,SCT055,0.00,VWS V14.01,2013-10-19 02:48:00,
2013-10-18 21:53:00,45.3,40.1,29.91,SW,233,3.0,4.0,82,0.00,,SCT055,0.00,VWS V14.01,2013-10-19 02:53:00,
2013-10-18 21:58:00,45.2,40.3,29.91,SW,233,4.0,5.0,83,0.00,,SCT055,0.00,VWS V14.01,2013-10-19 02:58:00,
2013-10-18 22:03:00,45.2,40.3,29.91,SW,233,2.0,5.0,83,0.00,,BKN055,0.00,VWS V14.01,2013-10-19 03:03:00,
2013-10-18 22:08:00,45.2,40.3,29.91,SW,233,2.0,4.0,83,0.00,,BKN055,0.00,VWS V14.01,2013-10-19 03:08:00,
2013-10-18 22:13:00,45.2,40.3,29.92,SW,233,2.0,4.0,83,0.00,,BKN055,0.00,VWS V14.01,2013-10-19 03:13:00,
2013-10-18 22:18:00,45.3,40.5,29.92,SW,232,3.0,5.0,83,0.00,,BKN055,0.00,VWS V14.01,2013-10-19 03:18:00,
2013-10-18 22:23:00,45.4,40.5,29.91,SW,232,2.0,6.0,83,0.00,,SCT055,0.00,VWS V14.01,2013-10-19 03:23:00,
2013-10-18 22:28:00,45.4,40.2,29.91,SW,227,1.0,6.0,82,0.00,,SCT055,0.00,VWS V14.01,2013-10-19 03:28:00,
2013-10-18 22:33:00,45.4,40.2,29.91,SW,218,2.0,7.0,82,0.00,,SCT055,0.00,VWS V14.01,2013-10-19 03:33:00,
2013-10-18 22:38:00,45.4,40.2,29.91,SW,231,3.0,5.0,82,0.00,,SCT055,0.00,VWS V14.01,2013-10-19 03:38:00,
2013-10-18 22:43:00,45.4,40.2,29.91,SW,230,4.0,6.0,82,0.00,,BKN055,0.00,VWS V14.01,2013-10-19 03:43:00,
2013-10-18 22:48:00,45.3,40.1,29.91,SW,232,4.0,7.0,82,0.00,,BKN055,0.00,VWS V14.01,2013-10-19 03:48:00,
2013-10-18 22:53:00,45.2,40.0,29.91,SW,224,4.0,6.0,82,0.00,,BKN055,0.00,VWS V14.01,2013-10-19 03:53:00,
2013-10-18 22:58:00,45.1,39.9,29.91,WSW,255,2.0,5.0,82,0.00,,BKN055,0.00,VWS V14.01,2013-10-19 03:58:00,
2013-10-18 23:01:00,45.1,39.9,29.91,SW,234,3.0,4.0,82,0.00,,OVC055,0.00,VWS V14.01,2013-10-19 04:01:00,
2013-10-18 23:06:00,45.1,39.9,29.90,WSW,243,3.0,4.0,82,0.00,,OVC055,0.00,VWS V14.01,2013-10-19 04:06:00,
2013-10-18 23:11:00,45.0,39.8,29.90,SW,225,0.0,5.0,82,0.00,,OVC055,0.00,VWS V14.01,2013-10-19 04:11:00,
2013-10-18 23:16:00,45.0,39.8,29.90,SW,216,3.0,6.0,82,0.00,,OVC055,0.00,VWS V14.01,2013-10-19 04:16:00,
2013-10-18 23:21:00,44.9,39.8,29.90,SW,223,2.0,4.0,82,0.00,,SCT055,0.00,VWS V14.01,2013-10-19 04:21:00,
2013-10-18 23:26:00,44.9,39.8,29.90,SW,232,3.0,6.0,82,0.00,,SCT055,0.00,VWS V14.01,2013-10-19 04:26:00,
2013-10-18 23:31:00,44.8,39.7,29.90,WSW,246,3.0,5.0,82,0.00,,SCT055,0.00,VWS V14.01,2013-10-19 04:31:00,
2013-10-18 23:36:00,44.6,39.8,29.90,WSW,251,3.0,6.0,83,0.00,,SCT055,0.00,VWS V14.01,2013-10-19 04:36:00,
2013-10-18 23:41:00,44.6,39.8,29.90,WSW,246,2.0,4.0,83,0.00,,FEW055,0.00,VWS V14.01,2013-10-19 04:41:00,
2013-10-18 23:46:00,44.5,39.7,29.90,SW,235,3.0,4.0,83,0.00,,FEW055,0.00,VWS V14.01,2013-10-19 04:46:00,
2013-10-18 23:51:00,44.3,39.8,29.89,SW,233,2.0,2.0,84,0.00,,FEW055,0.00,VWS V14.01,2013-10-19 04:51:00,
2013-10-18 23:56:00,44.3,39.8,29.89,SW,221,3.0,4.0,84,0.00,,FEW055,0.00,VWS V14.01,2013-10-19 04:56:00,